createdAt,value
2023-04-18T00:00:05.174Z,9.443573
2023-04-18T00:01:04.085Z,9.443588
2023-04-18T00:02:04.190Z,9.443671
2023-04-18T00:03:04.859Z,9.443549
2023-04-18T00:04:05.473Z,9.443438
2023-04-18T00:05:04.157Z,9.443464
2023-04-18T00:06:04.168Z,9.443490
2023-04-18T00:07:04.078Z,9.443427
2023-04-18T00:08:04.192Z,9.443458
2023-04-18T00:09:04.700Z,9.443544
2023-04-18T00:10:04.393Z,9.443561
2023-04-18T00:11:04.014Z,9.443673
2023-04-18T00:12:04.008Z,9.443635
2023-04-18T00:13:04.019Z,9.443647
2023-04-18T00:14:04.761Z,9.443649
2023-04-18T00:15:04.016Z,9.443571
2023-04-18T00:16:04.309Z,9.443603
2023-04-18T00:17:03.999Z,9.443546
2023-04-18T00:18:04.315Z,9.443582
2023-04-18T00:19:03.976Z,9.443640
2023-04-18T00:20:04.015Z,9.443730
2023-04-18T00:21:03.937Z,9.443688
2023-04-18T00:22:04.115Z,9.443587
2023-04-18T00:23:03.975Z,9.443647
2023-04-18T00:24:03.932Z,9.443630
2023-04-18T00:25:03.969Z,9.443608
2023-04-18T00:26:03.947Z,9.443621
2023-04-18T00:27:03.922Z,9.443690
2023-04-18T00:28:03.953Z,9.443664
2023-04-18T00:29:03.924Z,9.443626
2023-04-18T00:30:03.914Z,9.443669
2023-04-18T00:31:03.944Z,9.443699
2023-04-18T00:32:03.923Z,9.443719
2023-04-18T00:33:03.945Z,9.443683
2023-04-18T00:34:03.884Z,9.443676
2023-04-18T00:35:03.864Z,9.443702
2023-04-18T00:36:03.942Z,9.443710
2023-04-18T00:37:03.913Z,9.443733
2023-04-18T00:38:03.858Z,9.443746
2023-04-18T00:39:03.822Z,9.443690
2023-04-18T00:40:03.847Z,9.443667
2023-04-18T00:41:36.421Z,9.443712
2023-04-18T00:42:04.157Z,9.443746
2023-04-18T00:43:36.351Z,9.443769
2023-04-18T00:44:36.366Z,9.443813
2023-04-18T00:45:03.917Z,9.443797
2023-04-18T00:46:37.426Z,9.443751
2023-04-18T00:47:37.463Z,9.443755
2023-04-18T00:48:36.753Z,9.443688
2023-04-18T00:49:36.288Z,9.443689
2023-04-18T00:50:04.001Z,9.443677
2023-04-18T00:51:03.796Z,9.443633
2023-04-18T00:52:03.748Z,9.443601
2023-04-18T00:53:03.802Z,9.443640
2023-04-18T00:54:03.798Z,9.443713
2023-04-18T00:55:03.820Z,9.443706
2023-04-18T00:56:03.828Z,9.443687
2023-04-18T00:57:03.777Z,9.443683
2023-04-18T00:58:03.731Z,9.443635
2023-04-18T00:59:03.725Z,9.443625
2023-04-18T01:00:03.704Z,9.443650
2023-04-18T01:01:03.755Z,9.443662
2023-04-18T01:02:03.860Z,9.443539
2023-04-18T01:03:03.908Z,9.443600
2023-04-18T01:04:03.761Z,9.443631
2023-04-18T01:05:04.713Z,9.443661
2023-04-18T01:06:03.682Z,9.443574
2023-04-18T01:07:03.682Z,9.443577
2023-04-18T01:08:03.710Z,9.443646
2023-04-18T01:09:03.658Z,9.443544
2023-04-18T01:10:03.671Z,9.443648
2023-04-18T01:11:03.666Z,9.443769
2023-04-18T01:12:03.616Z,9.443721
2023-04-18T01:13:03.601Z,9.443655
2023-04-18T01:14:03.666Z,9.443769
2023-04-18T01:15:03.610Z,9.443880
2023-04-18T01:16:03.685Z,9.443786
2023-04-18T01:17:03.604Z,9.443813
2023-04-18T01:18:03.698Z,9.443842
2023-04-18T01:19:03.616Z,9.443853
2023-04-18T01:20:03.874Z,9.443674
2023-04-18T01:21:03.557Z,9.443592
2023-04-18T01:22:03.593Z,9.443565
2023-04-18T01:23:03.549Z,9.443632
2023-04-18T01:24:03.561Z,9.443692
2023-04-18T01:25:03.555Z,9.443548
2023-04-18T01:26:03.563Z,9.443427
2023-04-18T01:27:03.524Z,9.443661
2023-04-18T01:28:03.535Z,9.443756
2023-04-18T01:29:03.532Z,9.443820
2023-04-18T01:30:03.497Z,9.443749
2023-04-18T01:31:03.590Z,9.443801
2023-04-18T01:32:03.542Z,9.443794
2023-04-18T01:33:03.561Z,9.443798
2023-04-18T01:34:03.507Z,9.443873
2023-04-18T01:35:03.503Z,9.443851
2023-04-18T01:36:03.511Z,9.443743
2023-04-18T01:37:03.478Z,9.443921
2023-04-18T01:38:03.510Z,9.443755
2023-04-18T01:39:03.522Z,9.443574
2023-04-18T01:40:03.453Z,9.443725
2023-04-18T01:41:03.477Z,9.443813
2023-04-18T01:42:03.492Z,9.443750
2023-04-18T01:43:03.456Z,9.443658
2023-04-18T01:44:03.433Z,9.443661
2023-04-18T01:45:03.445Z,9.443636
2023-04-18T01:46:03.528Z,9.443648
2023-04-18T01:47:03.455Z,9.443549
2023-04-18T01:48:03.455Z,9.443437
2023-04-18T01:49:03.454Z,9.443549
2023-04-18T01:50:03.407Z,9.443449
2023-04-18T01:51:03.401Z,9.443443
2023-04-18T01:52:04.363Z,9.443639
2023-04-18T01:53:03.376Z,9.443568
2023-04-18T01:54:03.367Z,9.443649
2023-04-18T01:55:03.345Z,9.443563
2023-04-18T01:56:03.394Z,9.443498
2023-04-18T01:57:03.359Z,9.443346
2023-04-18T01:58:03.351Z,9.443426
2023-04-18T01:59:03.365Z,9.443369
2023-04-18T02:00:03.353Z,9.443366
2023-04-18T02:01:04.331Z,9.443386
2023-04-18T02:02:03.466Z,9.443577
2023-04-18T02:03:03.398Z,9.443500
2023-04-18T02:04:03.546Z,9.443683
2023-04-18T02:05:03.299Z,9.443645
2023-04-18T02:06:03.291Z,9.443933
2023-04-18T02:07:03.324Z,9.443749
2023-04-18T02:08:03.277Z,9.443799
2023-04-18T02:09:03.297Z,9.443707
2023-04-18T02:10:03.304Z,9.443613
2023-04-18T02:11:03.253Z,9.443692
2023-04-18T02:12:03.284Z,9.443657
2023-04-18T02:13:03.265Z,9.443622
2023-04-18T02:14:03.263Z,9.443661
2023-04-18T02:15:03.278Z,9.443675
2023-04-18T02:16:03.361Z,9.443707
2023-04-18T02:17:03.215Z,9.443711
2023-04-18T02:18:03.264Z,9.443689
2023-04-18T02:19:03.267Z,9.443637
2023-04-18T02:20:03.206Z,9.443614
2023-04-18T02:21:03.196Z,9.443501
2023-04-18T02:22:03.267Z,9.443527
2023-04-18T02:23:03.209Z,9.443653
2023-04-18T02:24:03.222Z,9.443617
2023-04-18T02:25:03.163Z,9.443660
2023-04-18T02:26:03.145Z,9.443686
2023-04-18T02:27:03.179Z,9.443707
2023-04-18T02:28:03.168Z,9.443693
2023-04-18T02:29:03.219Z,9.443695
2023-04-18T02:30:03.164Z,9.443662
2023-04-18T02:31:03.124Z,9.443626
2023-04-18T02:32:03.231Z,9.443670
2023-04-18T02:33:03.142Z,9.443727
2023-04-18T02:34:03.139Z,9.443713
2023-04-18T02:35:03.111Z,9.443714
2023-04-18T02:36:03.099Z,9.443733
2023-04-18T02:37:03.130Z,9.443739
2023-04-18T02:38:03.143Z,9.443702
2023-04-18T02:39:03.068Z,9.443720
2023-04-18T02:40:03.083Z,9.443741
2023-04-18T02:41:03.062Z,9.443757
2023-04-18T02:42:03.101Z,9.443788
2023-04-18T02:43:03.043Z,9.443769
2023-04-18T02:44:03.050Z,9.443762
2023-04-18T02:45:03.034Z,9.443720
2023-04-18T02:46:03.099Z,9.443730
2023-04-18T02:47:03.023Z,9.443746
2023-04-18T02:48:03.033Z,9.443735
2023-04-18T02:49:03.017Z,9.443836
2023-04-18T02:50:02.999Z,9.443816
2023-04-18T02:51:03.025Z,9.443779
2023-04-18T02:52:03.020Z,9.443764
2023-04-18T02:53:03.031Z,9.443795
2023-04-18T02:54:03.007Z,9.443882
2023-04-18T02:55:02.996Z,9.443930
2023-04-18T02:56:02.966Z,9.443910
2023-04-18T02:57:02.964Z,9.443854
2023-04-18T02:58:02.948Z,9.443812
2023-04-18T02:59:02.970Z,9.443838
2023-04-18T03:00:02.981Z,9.443937
2023-04-18T03:01:02.973Z,9.443884
2023-04-18T03:02:02.917Z,9.443954
2023-04-18T03:03:03.013Z,9.443933
2023-04-18T03:04:02.924Z,9.443750
2023-04-18T03:05:02.984Z,9.443723
2023-04-18T03:06:02.878Z,9.443710
2023-04-18T03:07:02.882Z,9.443671
2023-04-18T03:08:02.908Z,9.443724
2023-04-18T03:09:02.881Z,9.443747
2023-04-18T03:10:02.966Z,9.443837
2023-04-18T03:11:02.869Z,9.443671
2023-04-18T03:12:02.841Z,9.443645
2023-04-18T03:13:02.863Z,9.443686
2023-04-18T03:14:02.849Z,9.443632
2023-04-18T03:15:02.859Z,9.443542
2023-04-18T03:16:02.895Z,9.443683
2023-04-18T03:17:02.852Z,9.443740
2023-04-18T03:18:02.937Z,9.443622
2023-04-18T03:19:02.787Z,9.443622
2023-04-18T03:20:02.788Z,9.443607
2023-04-18T03:21:03.739Z,9.443693
2023-04-18T03:22:02.774Z,9.443622
2023-04-18T03:23:02.849Z,9.443693
2023-04-18T03:24:02.778Z,9.443773
2023-04-18T03:25:02.771Z,9.443788
2023-04-18T03:26:02.768Z,9.443838
2023-04-18T03:27:02.777Z,9.443864
2023-04-18T03:28:02.752Z,9.443832
2023-04-18T03:29:02.760Z,9.443801
2023-04-18T03:30:02.736Z,9.443771
2023-04-18T03:31:02.742Z,9.443766
2023-04-18T03:32:02.769Z,9.443786
2023-04-18T03:33:03.771Z,9.443704
2023-04-18T03:34:02.700Z,9.443734
2023-04-18T03:35:02.721Z,9.443791
2023-04-18T03:36:02.691Z,9.443810
2023-04-18T03:37:02.731Z,9.443848
2023-04-18T03:38:02.692Z,9.443772
2023-04-18T03:39:02.726Z,9.443762
2023-04-18T03:40:02.672Z,9.443809
2023-04-18T03:41:02.659Z,9.443810
2023-04-18T03:42:02.668Z,9.443775
2023-04-18T03:43:02.734Z,9.443783
2023-04-18T03:44:02.744Z,9.443796
2023-04-18T03:45:02.646Z,9.443730
2023-04-18T03:46:02.671Z,9.443742
2023-04-18T03:47:02.637Z,9.443760
2023-04-18T03:48:02.665Z,9.443746
2023-04-18T03:49:02.622Z,9.443763
2023-04-18T03:50:02.615Z,9.443781
2023-04-18T03:51:02.608Z,9.443756
2023-04-18T03:52:02.592Z,9.443743
2023-04-18T03:53:02.700Z,9.443708
2023-04-18T03:54:02.613Z,9.443711
2023-04-18T03:55:02.569Z,9.443738
2023-04-18T03:56:02.573Z,9.443769
2023-04-18T03:57:02.563Z,9.443757
2023-04-18T03:58:02.587Z,9.443699
2023-04-18T03:59:02.579Z,9.443748
2023-04-18T04:00:02.632Z,9.443733
2023-04-18T04:01:02.550Z,9.443763
2023-04-18T04:02:02.608Z,9.443784
2023-04-18T04:03:02.645Z,9.443769
2023-04-18T04:04:02.647Z,9.443720
2023-04-18T04:05:02.728Z,9.443728
2023-04-18T04:06:02.518Z,9.443790
2023-04-18T04:07:02.519Z,9.443722
2023-04-18T04:08:02.540Z,9.443773
2023-04-18T04:09:02.522Z,9.443776
2023-04-18T04:10:02.496Z,9.443713
2023-04-18T04:11:02.495Z,9.443707
2023-04-18T04:12:02.510Z,9.443501
2023-04-18T04:13:02.524Z,9.443661
2023-04-18T04:14:02.490Z,9.443709
2023-04-18T04:15:02.458Z,9.443645
2023-04-18T04:16:02.498Z,9.443679
2023-04-18T04:17:02.494Z,9.443751
2023-04-18T04:18:02.556Z,9.443735
2023-04-18T04:19:02.482Z,9.443695
2023-04-18T04:20:02.485Z,9.443706
2023-04-18T04:21:02.448Z,9.443698
2023-04-18T04:22:02.424Z,9.443670
2023-04-18T04:23:02.419Z,9.443615
2023-04-18T04:24:02.468Z,9.443653
2023-04-18T04:25:02.395Z,9.443727
2023-04-18T04:26:02.432Z,9.443727
2023-04-18T04:27:02.407Z,9.443710
2023-04-18T04:28:02.430Z,9.443681
2023-04-18T04:29:02.397Z,9.443661
2023-04-18T04:30:02.362Z,9.443691
2023-04-18T04:31:02.355Z,9.443746
2023-04-18T04:32:02.481Z,9.443727
2023-04-18T04:33:02.377Z,9.443716
2023-04-18T04:34:02.380Z,9.443750
2023-04-18T04:35:02.347Z,9.443721
2023-04-18T04:36:02.306Z,9.443706
2023-04-18T04:37:02.330Z,9.443675
2023-04-18T04:38:02.370Z,9.443679
2023-04-18T04:39:02.308Z,9.443648
2023-04-18T04:40:02.302Z,9.443687
2023-04-18T04:41:02.292Z,9.443672
2023-04-18T04:42:02.393Z,9.443688
2023-04-18T04:43:02.280Z,9.443666
2023-04-18T04:44:02.273Z,9.443625
2023-04-18T04:45:02.349Z,9.443592
2023-04-18T04:46:02.356Z,9.443608
2023-04-18T04:47:02.293Z,9.443582
2023-04-18T04:48:02.306Z,9.443667
2023-04-18T04:49:02.250Z,9.443608
2023-04-18T04:50:02.252Z,9.443569
2023-04-18T04:51:02.267Z,9.443526
2023-04-18T04:52:02.303Z,9.443572
2023-04-18T04:53:02.236Z,9.443492
2023-04-18T04:54:02.253Z,9.443653
2023-04-18T04:55:02.232Z,9.443723
2023-04-18T04:56:02.249Z,9.443643
2023-04-18T04:57:02.228Z,9.443532
2023-04-18T04:58:02.248Z,9.443570
2023-04-18T04:59:02.258Z,9.443659
2023-04-18T05:00:02.189Z,9.443592
2023-04-18T05:01:02.235Z,9.443784
2023-04-18T05:02:02.315Z,9.443736
2023-04-18T05:03:02.364Z,9.443699
2023-04-18T05:04:02.369Z,9.443699
2023-04-18T05:05:02.160Z,9.443698
2023-04-18T05:06:02.163Z,9.443683
2023-04-18T05:07:02.155Z,9.443660
2023-04-18T05:08:02.185Z,9.443719
2023-04-18T05:09:02.139Z,9.443702
2023-04-18T05:10:02.134Z,9.443729
2023-04-18T05:11:02.117Z,9.443686
2023-04-18T05:12:02.167Z,9.443645
2023-04-18T05:13:02.116Z,9.443751
2023-04-18T05:14:02.143Z,9.443735
2023-04-18T05:15:02.116Z,9.443719
2023-04-18T05:16:02.096Z,9.443697
2023-04-18T05:17:02.279Z,9.443743
2023-04-18T05:18:02.184Z,9.443698
2023-04-18T05:19:02.188Z,9.443742
2023-04-18T05:20:02.173Z,9.443718
2023-04-18T05:21:02.056Z,9.443730
2023-04-18T05:22:02.081Z,9.443727
2023-04-18T05:23:02.082Z,9.443702
2023-04-18T05:24:02.046Z,9.443720
2023-04-18T05:25:02.035Z,9.443687
2023-04-18T05:26:02.065Z,9.443713
2023-04-18T05:27:02.036Z,9.443741
2023-04-18T05:28:02.019Z,9.443696
2023-04-18T05:29:02.106Z,9.443692
2023-04-18T05:30:02.033Z,9.443700
2023-04-18T05:31:02.164Z,9.443702
2023-04-18T05:32:02.028Z,9.443722
2023-04-18T05:33:02.051Z,9.443736
2023-04-18T05:34:02.062Z,9.443751
2023-04-18T05:35:01.999Z,9.443720
2023-04-18T05:36:02.003Z,9.443705
2023-04-18T05:37:02.017Z,9.443710
2023-04-18T05:38:02.008Z,9.443732
2023-04-18T05:39:01.955Z,9.443715
2023-04-18T05:40:01.972Z,9.443713
2023-04-18T05:41:01.970Z,9.443697
2023-04-18T05:42:01.970Z,9.443766
2023-04-18T05:43:01.921Z,9.443746
2023-04-18T05:44:05.408Z,9.443741
2023-04-18T05:45:02.940Z,9.443702
2023-04-18T05:46:01.994Z,9.443690
2023-04-18T05:47:01.917Z,9.443759
2023-04-18T05:48:02.038Z,9.443796
2023-04-18T05:49:01.913Z,9.443781
2023-04-18T05:50:02.011Z,9.443767
2023-04-18T05:51:01.927Z,9.443787
2023-04-18T05:52:01.954Z,9.443778
2023-04-18T05:53:01.940Z,9.443691
2023-04-18T05:54:01.916Z,9.443636
2023-04-18T05:55:01.934Z,9.443680
2023-04-18T05:56:01.881Z,9.443624
2023-04-18T05:57:04.245Z,9.443690
2023-04-18T05:58:01.868Z,9.443733
2023-04-18T05:59:01.888Z,9.443691
2023-04-18T06:00:02.063Z,9.443650
2023-04-18T06:01:01.842Z,9.443669
2023-04-18T06:02:01.849Z,9.443572
2023-04-18T06:03:02.162Z,9.443659
2023-04-18T06:04:01.964Z,9.443738
2023-04-18T06:05:01.909Z,9.443763
2023-04-18T06:06:02.118Z,9.443768
2023-04-18T06:07:02.765Z,9.443766
2023-04-18T06:08:01.761Z,9.443691
2023-04-18T06:09:01.780Z,9.443620
2023-04-18T06:10:01.883Z,9.443674
2023-04-18T06:11:01.798Z,9.443684
2023-04-18T06:12:01.758Z,9.443684
2023-04-18T06:13:01.792Z,9.443524
2023-04-18T06:14:01.743Z,9.443532
2023-04-18T06:15:01.837Z,9.443460
2023-04-18T06:16:01.828Z,9.443654
2023-04-18T06:17:01.832Z,9.443492
2023-04-18T06:18:01.788Z,9.443530
2023-04-18T06:19:01.748Z,9.443476
2023-04-18T06:20:01.707Z,9.443656
2023-04-18T06:21:01.701Z,9.443733
2023-04-18T06:22:01.701Z,9.443684
2023-04-18T06:23:01.697Z,9.443702
2023-04-18T06:24:01.737Z,9.443609
2023-04-18T06:25:01.709Z,9.443556
2023-04-18T06:26:01.667Z,9.443698
2023-04-18T06:27:01.767Z,9.443650
2023-04-18T06:28:01.710Z,9.443630
2023-04-18T06:29:01.644Z,9.443627
2023-04-18T06:30:01.645Z,9.443562
2023-04-18T06:31:01.622Z,9.443647
2023-04-18T06:32:01.729Z,9.443661
2023-04-18T06:33:01.666Z,9.443645
2023-04-18T06:34:01.659Z,9.443683
2023-04-18T06:35:01.606Z,9.443500
2023-04-18T06:36:01.618Z,9.443565
2023-04-18T06:37:01.685Z,9.443647
2023-04-18T06:38:01.628Z,9.443656
2023-04-18T06:39:01.609Z,9.443666
2023-04-18T06:40:01.603Z,9.443678
2023-04-18T06:41:01.563Z,9.443628
2023-04-18T06:42:01.573Z,9.443620
2023-04-18T06:43:01.573Z,9.443629
2023-04-18T06:44:03.568Z,9.443645
2023-04-18T06:45:02.581Z,9.443637
2023-04-18T06:46:01.685Z,9.443646
2023-04-18T06:47:01.638Z,9.443658
2023-04-18T06:48:01.567Z,9.443667
2023-04-18T06:49:01.557Z,9.443659
2023-04-18T06:50:01.530Z,9.443667
2023-04-18T06:51:01.536Z,9.443633
2023-04-18T06:52:01.559Z,9.443564
2023-04-18T06:53:01.534Z,9.443611
2023-04-18T06:54:01.544Z,9.443722
2023-04-18T06:55:01.517Z,9.443658
2023-04-18T06:56:01.547Z,9.443626
2023-04-18T06:57:01.549Z,9.443651
2023-04-18T06:58:01.553Z,9.443623
2023-04-18T06:59:01.521Z,9.443648
2023-04-18T07:00:01.516Z,9.443659
2023-04-18T07:01:01.543Z,9.443597
2023-04-18T07:02:01.454Z,9.443575
2023-04-18T07:03:01.584Z,9.443606
2023-04-18T07:04:01.545Z,9.443637
2023-04-18T07:05:01.539Z,9.443657
2023-04-18T07:06:01.465Z,9.443666
2023-04-18T07:07:01.429Z,9.443640
2023-04-18T07:08:01.428Z,9.443655
2023-04-18T07:09:01.394Z,9.443665
2023-04-18T07:10:02.510Z,9.443641
2023-04-18T07:11:01.408Z,9.443644
2023-04-18T07:12:01.389Z,9.443635
2023-04-18T07:13:01.370Z,9.443663
2023-04-18T07:14:01.471Z,9.443678
2023-04-18T07:15:01.348Z,9.443700
2023-04-18T07:16:01.372Z,9.443699
2023-04-18T07:17:01.380Z,9.443647
2023-04-18T07:18:01.432Z,9.443770
2023-04-18T07:19:01.362Z,9.443701
2023-04-18T07:20:01.394Z,9.443732
2023-04-18T07:21:01.380Z,9.443731
2023-04-18T07:22:01.331Z,9.443747
2023-04-18T07:23:01.322Z,9.443659
2023-04-18T07:24:01.807Z,9.443649
2023-04-18T07:25:01.369Z,9.443655
2023-04-18T07:26:01.302Z,9.443683
2023-04-18T07:27:01.356Z,9.443677
2023-04-18T07:28:01.319Z,9.443707
2023-04-18T07:29:01.275Z,9.443706
2023-04-18T07:30:01.294Z,9.443748
2023-04-18T07:31:01.525Z,9.443704
2023-04-18T07:32:01.272Z,9.443687
2023-04-18T07:33:01.286Z,9.443707
2023-04-18T07:34:01.344Z,9.443526
2023-04-18T07:35:01.317Z,9.443575
2023-04-18T07:36:01.318Z,9.443670
2023-04-18T07:37:02.276Z,9.443692
2023-04-18T07:38:01.237Z,9.443709
2023-04-18T07:39:01.266Z,9.443715
2023-04-18T07:40:01.232Z,9.443695
2023-04-18T07:41:01.239Z,9.443674
2023-04-18T07:42:01.330Z,9.443629
2023-04-18T07:43:01.256Z,9.443577
2023-04-18T07:44:01.302Z,9.443735
2023-04-18T07:45:01.204Z,9.443678
2023-04-18T07:46:01.269Z,9.443666
2023-04-18T07:47:01.239Z,9.443663
2023-04-18T07:48:01.197Z,9.443647
2023-04-18T07:49:01.179Z,9.443726
2023-04-18T07:50:01.184Z,9.443682
2023-04-18T07:51:01.197Z,9.443655
2023-04-18T07:52:01.258Z,9.443693
2023-04-18T07:53:01.182Z,9.443653
2023-04-18T07:54:01.174Z,9.443564
2023-04-18T07:55:01.124Z,9.443576
2023-04-18T07:56:01.126Z,9.443690
2023-04-18T07:57:01.102Z,9.443683
2023-04-18T07:58:01.256Z,9.443579
2023-04-18T07:59:01.089Z,9.443520
2023-04-18T08:00:01.101Z,9.443558
2023-04-18T08:01:01.085Z,9.443608
2023-04-18T08:02:01.133Z,9.443592
2023-04-18T08:03:01.261Z,9.443643
2023-04-18T08:04:01.161Z,9.443692
2023-04-18T08:05:01.184Z,9.443663
2023-04-18T08:06:01.079Z,9.443688
2023-04-18T08:07:01.097Z,9.443620
2023-04-18T08:08:01.029Z,9.443667
2023-04-18T08:09:01.033Z,9.443841
2023-04-18T08:10:01.055Z,9.443466
2023-04-18T08:11:01.019Z,9.443729
2023-04-18T08:12:01.029Z,9.443842
2023-04-18T08:13:01.041Z,9.443663
2023-04-18T08:14:01.028Z,9.443695
2023-04-18T08:15:01.029Z,9.443680
2023-04-18T08:16:01.039Z,9.443745
2023-04-18T08:17:00.990Z,9.443710
2023-04-18T08:18:01.059Z,9.443742
2023-04-18T08:19:00.963Z,9.443712
2023-04-18T08:20:00.994Z,9.443648
2023-04-18T08:21:00.972Z,9.443518
2023-04-18T08:22:00.944Z,9.443731
2023-04-18T08:23:07.533Z,9.443808
2023-04-18T08:24:02.944Z,9.443714
2023-04-18T08:25:04.914Z,9.443696
2023-04-18T08:26:01.972Z,9.443704
2023-04-18T08:27:00.927Z,9.443720
2023-04-18T08:28:00.929Z,9.443716
2023-04-18T08:29:00.935Z,9.443678
2023-04-18T08:30:00.959Z,9.443656
2023-04-18T08:31:01.101Z,9.443664
2023-04-18T08:32:00.982Z,9.443667
2023-04-18T08:33:00.993Z,9.443628
2023-04-18T08:34:02.152Z,9.443619
2023-04-18T08:35:00.918Z,9.443597
2023-04-18T08:36:00.922Z,9.443667
2023-04-18T08:37:00.916Z,9.443665
2023-04-18T08:38:00.874Z,9.443688
2023-04-18T08:39:00.866Z,9.443673
2023-04-18T08:40:00.850Z,9.443631
2023-04-18T08:41:00.908Z,9.443646
2023-04-18T08:42:00.840Z,9.443632
2023-04-18T08:43:00.831Z,9.443673
2023-04-18T08:44:01.012Z,9.443690
2023-04-18T08:45:00.814Z,9.443666
2023-04-18T08:46:00.953Z,9.443655
2023-04-18T08:47:00.833Z,9.443645
2023-04-18T08:48:00.816Z,9.443710
2023-04-18T08:49:00.901Z,9.443658
2023-04-18T08:50:00.890Z,9.443654
2023-04-18T08:51:00.815Z,9.443664
2023-04-18T08:52:00.757Z,9.443735
2023-04-18T08:53:00.805Z,9.443709
2023-04-18T08:54:00.737Z,9.443668
2023-04-18T08:55:00.799Z,9.443571
2023-04-18T08:56:00.739Z,9.443662
2023-04-18T08:57:00.736Z,9.443649
2023-04-18T08:58:00.715Z,9.443653
2023-04-18T08:59:00.711Z,9.443643
2023-04-18T09:00:00.752Z,9.443640
2023-04-18T09:01:00.829Z,9.443651
2023-04-18T09:02:00.994Z,9.443625
2023-04-18T09:03:00.923Z,9.443607
2023-04-18T09:04:00.765Z,9.443668
2023-04-18T09:05:00.686Z,9.443628
2023-04-18T09:06:00.703Z,9.443635
2023-04-18T09:07:00.667Z,9.443650
2023-04-18T09:08:00.691Z,9.443691
2023-04-18T09:09:00.695Z,9.443666
2023-04-18T09:10:00.689Z,9.443616
2023-04-18T09:11:00.705Z,9.443629
2023-04-18T09:12:00.642Z,9.443648
2023-04-18T09:13:00.998Z,9.443607
2023-04-18T09:14:00.611Z,9.443599
2023-04-18T09:15:00.629Z,9.443650
2023-04-18T09:16:00.640Z,9.443764
2023-04-18T09:17:00.700Z,9.443728
2023-04-18T09:18:00.669Z,9.443737
2023-04-18T09:19:00.601Z,9.443750
2023-04-18T09:20:00.670Z,9.443732
2023-04-18T09:21:00.576Z,9.443764
2023-04-18T09:22:00.594Z,9.443736
2023-04-18T09:23:00.791Z,9.443705
2023-04-18T09:24:00.568Z,9.443706
2023-04-18T09:25:00.555Z,9.443711
2023-04-18T09:26:00.538Z,9.443745
2023-04-18T09:27:00.542Z,9.443749
2023-04-18T09:28:06.833Z,9.443727
2023-04-18T09:29:00.531Z,9.443725
2023-04-18T09:30:00.531Z,9.443687
2023-04-18T09:31:00.547Z,9.443762
2023-04-18T09:32:00.496Z,9.443796
2023-04-18T09:33:00.558Z,9.443725
2023-04-18T09:34:00.723Z,9.443772
2023-04-18T09:35:02.014Z,9.443727
2023-04-18T09:36:00.524Z,9.443742
2023-04-18T09:37:00.548Z,9.443763
2023-04-18T09:38:00.526Z,9.443702
2023-04-18T09:39:00.546Z,9.443728
2023-04-18T09:40:00.460Z,9.443650
2023-04-18T09:41:00.461Z,9.443752
2023-04-18T09:42:00.454Z,9.443663
2023-04-18T09:43:00.434Z,9.443789
2023-04-18T09:44:00.440Z,9.443767
2023-04-18T09:45:00.460Z,9.443658
2023-04-18T09:46:00.553Z,9.443737
2023-04-18T09:47:00.420Z,9.443694
2023-04-18T09:48:00.462Z,9.443815
2023-04-18T09:49:00.390Z,9.443564
2023-04-18T09:50:00.404Z,9.444013
2023-04-18T09:51:00.408Z,9.443931
2023-04-18T09:52:02.271Z,9.443814
2023-04-18T09:53:00.381Z,9.444043
2023-04-18T09:54:01.360Z,9.443959
2023-04-18T09:55:01.206Z,9.443787
2023-04-18T09:56:00.483Z,9.443809
2023-04-18T09:57:00.363Z,9.443783
2023-04-18T09:58:00.387Z,9.443755
2023-04-18T09:59:00.348Z,9.443765
2023-04-18T10:00:00.366Z,9.443755
2023-04-18T10:01:01.167Z,9.443720
2023-04-18T10:02:00.367Z,9.443924
2023-04-18T10:03:00.437Z,9.443546
2023-04-18T10:04:01.373Z,9.443684
2023-04-18T10:05:00.438Z,9.443694
2023-04-18T10:06:00.307Z,9.443542
2023-04-18T10:07:00.297Z,9.443756
2023-04-18T10:08:00.283Z,9.443838
2023-04-18T10:09:00.293Z,9.443754
2023-04-18T10:10:00.295Z,9.443662
2023-04-18T10:11:00.242Z,9.443728
2023-04-18T10:12:00.246Z,9.443743
2023-04-18T10:13:00.256Z,9.443624
2023-04-18T10:14:00.215Z,9.443656
2023-04-18T10:15:00.312Z,9.443725
2023-04-18T10:16:00.287Z,9.443766
2023-04-18T10:17:00.224Z,9.443785
2023-04-18T10:18:05.266Z,9.443814
2023-04-18T10:19:02.199Z,9.443834
2023-04-18T10:20:00.193Z,9.443824
2023-04-18T10:21:00.246Z,9.443757
2023-04-18T10:22:00.212Z,9.443792
2023-04-18T10:23:00.163Z,9.443760
2023-04-18T10:24:00.211Z,9.443784
2023-04-18T10:25:00.235Z,9.443782
2023-04-18T10:26:00.192Z,9.443701
2023-04-18T10:27:00.164Z,9.443662
2023-04-18T10:28:00.167Z,9.443745
2023-04-18T10:29:00.529Z,9.443768
2023-04-18T10:30:00.157Z,9.443756
2023-04-18T10:31:00.208Z,9.443746
2023-04-18T10:32:00.198Z,9.443707
2023-04-18T10:33:00.192Z,9.443739
2023-04-18T10:34:05.291Z,9.443722
2023-04-18T10:35:02.766Z,9.443748
2023-04-18T10:36:00.175Z,9.443753
2023-04-18T10:37:00.157Z,9.443771
2023-04-18T10:38:00.125Z,9.443804
2023-04-18T10:39:00.101Z,9.443762
2023-04-18T10:40:00.117Z,9.443709
2023-04-18T10:41:00.088Z,9.443743
2023-04-18T10:42:00.128Z,9.443744
2023-04-18T10:43:00.057Z,9.443752
2023-04-18T10:44:00.039Z,9.443720
2023-04-18T10:45:00.062Z,9.443783
2023-04-18T10:46:00.040Z,9.443764
2023-04-18T10:47:00.082Z,9.443763
2023-04-18T10:48:00.036Z,9.443768
2023-04-18T10:49:00.940Z,9.443778
2023-04-18T10:49:59.998Z,9.443748
2023-04-18T10:51:00.000Z,9.443717
2023-04-18T10:51:59.977Z,9.443790
2023-04-18T10:52:59.990Z,9.443761
2023-04-18T10:53:59.942Z,9.443728
2023-04-18T10:54:59.966Z,9.443717
2023-04-18T10:55:59.955Z,9.443703
2023-04-18T10:57:00.015Z,9.443782
2023-04-18T10:57:59.942Z,9.443685
2023-04-18T10:58:59.932Z,9.443700
2023-04-18T10:59:59.916Z,9.443714
2023-04-18T11:00:59.992Z,9.443750
2023-04-18T11:02:00.026Z,9.443680
2023-04-18T11:03:00.152Z,9.443689
2023-04-18T11:04:00.185Z,9.443727
2023-04-18T11:04:59.979Z,9.443751
2023-04-18T11:05:59.892Z,9.443736
2023-04-18T11:06:59.876Z,9.443741
2023-04-18T11:07:59.916Z,9.443701
2023-04-18T11:08:59.937Z,9.443659
2023-04-18T11:09:59.900Z,9.443713
2023-04-18T11:10:59.847Z,9.443718
2023-04-18T11:11:59.843Z,9.443695
2023-04-18T11:12:59.849Z,9.443704
2023-04-18T11:13:59.829Z,9.443714
2023-04-18T11:14:59.888Z,9.443686
2023-04-18T11:15:59.830Z,9.443673
2023-04-18T11:16:59.946Z,9.443661
2023-04-18T11:17:59.849Z,9.443693
2023-04-18T11:18:59.806Z,9.443745
2023-04-18T11:19:59.810Z,9.443712
2023-04-18T11:20:59.790Z,9.443671
2023-04-18T11:21:59.846Z,9.443721
2023-04-18T11:22:59.803Z,9.443739
2023-04-18T11:23:59.789Z,9.443704
2023-04-18T11:24:59.880Z,9.443686
2023-04-18T11:25:59.772Z,9.443697
2023-04-18T11:26:59.752Z,9.443710
2023-04-18T11:27:59.739Z,9.443707
2023-04-18T11:28:59.770Z,9.443774
2023-04-18T11:29:59.775Z,9.443738
2023-04-18T11:30:59.807Z,9.443646
2023-04-18T11:31:59.796Z,9.443611
2023-04-18T11:32:59.748Z,9.443597
2023-04-18T11:33:59.711Z,9.443675
2023-04-18T11:34:59.757Z,9.443702
2023-04-18T11:36:00.708Z,9.443663
2023-04-18T11:36:59.667Z,9.443676
2023-04-18T11:37:59.702Z,9.443698
2023-04-18T11:38:59.783Z,9.443697
2023-04-18T11:39:59.728Z,9.443735
2023-04-18T11:40:59.680Z,9.443737
2023-04-18T11:41:59.732Z,9.443670
2023-04-18T11:42:59.665Z,9.443678
2023-04-18T11:43:59.711Z,9.443703